Reklama

Seznam meteostanic a jejich METAR

Vyhledat místa podle abecedy:
A B C D E F G H I J K L M N O P Q R S T U V W X Y Z

Filtrovat:

ID stanice:
a/nebo
Název místa (fulltext):
 
Místo (ID)Naposledy načteno 
Rarotonga I (NCRG) 31.05.2020 02:00 UTC Zobrazit METAR
NCRG 310200Z AUTO 13005KT 9999 FEW027/// BKN043/// 28/24 Q1019
Reykjavik (BIRK) 31.05.2020 02:00 UTC Zobrazit METAR
BIRK 310200Z 15009KT 9999 FEW022 SCT053 BKN064 08/03 Q1018
Riga (EVRA) 31.05.2020 01:50 UTC Zobrazit METAR
EVRA 310150Z 02010KT CAVOK 12/05 Q1020 NOSIG
Rimini (LIPR) 31.05.2020 01:50 UTC Zobrazit METAR
LIPR 310150Z AUTO 23003KT 9999 BKN140/// 12/10 Q1016
Riyadh (OERY) 30.05.2020 22:00 UTC Zobrazit METAR
OERY 302200Z 04009KT CAVOK 35/00 Q1011
Road Town (TUPJ) 30.05.2020 21:00 UTC Zobrazit METAR
TUPJ 302100Z 09008KT 10SM SCT019 30/24 A3001 RMK Q1016 VIS16KM
Rodos (LGRP) 31.05.2020 01:50 UTC Zobrazit METAR
LGRP 310150Z 00000KT CAVOK 17/15 Q1016 NOSIG
Rome (LIRF) 31.05.2020 01:50 UTC Zobrazit METAR
LIRF 310150Z 07003KT CAVOK 11/11 Q1015 NOSIG
Roseau (TDCF) 30.05.2020 22:00 UTC Zobrazit METAR
TDCF 302200Z 11004KT 9999 FEW017 BKN042 29/21 Q1014
Rotterdam (EHRD) 30.05.2020 14:55 UTC Zobrazit METAR
EHRD 301455Z AUTO 04010KT 350V080 9999 NSC 23/06 Q1022 NOSIG
Rzeszow (EPRZ) 31.05.2020 02:00 UTC Zobrazit METAR
EPRZ 310200Z 28017KT 3500 RA BR OVC003 09/09 Q1005
Reklama

Lunární kalendář

  • 05.06.Fáze měsíce uplnek
  • 13.06.Fáze měsíce posl_ctvrt
  • 21.06.Fáze měsíce nov
  • 28.06.Fáze měsíce prv_ctvrt



Reklama
Meteodomečky

Počasí na Váš email

Emaily jsou bez reklamy a bez spamu



Odhlásit newsletter

Reklama


Další české internetové stránky (nejen) o počasí najdete v katalogu TOPlist - weby o počasí nebo vyhledejte na internetu, co jste tu na 🌞 Slunečnu ⛅ zatím nenašli:

Reklama